createdAt,value
2019-04-26T00:00:47.277Z,61.80
2019-04-26T00:03:20.619Z,63.90
2019-04-26T00:05:49.315Z,59.33
2019-04-26T00:08:18.021Z,52.40
2019-04-26T00:11:06.163Z,55.27
2019-04-26T00:13:39.438Z,54.33
2019-04-26T00:16:10.139Z,59.13
2019-04-26T00:18:39.546Z,57.83
2019-04-26T00:21:08.272Z,57.43
2019-04-26T00:23:36.975Z,55.50
2019-04-26T00:26:06.022Z,57.93
2019-04-26T00:28:34.755Z,54.27
2019-04-26T00:31:03.518Z,59.00
2019-04-26T00:33:32.211Z,57.33
2019-04-26T00:36:00.856Z,57.13
2019-04-26T00:38:29.551Z,60.50
2019-04-26T00:40:59.331Z,56.47
2019-04-26T00:43:28.527Z,67.90
2019-04-26T00:45:58.629Z,64.80
2019-04-26T00:48:29.237Z,63.47
2019-04-26T00:50:58.431Z,58.20
2019-04-26T00:53:29.331Z,60.87
2019-04-26T00:55:59.023Z,60.43
2019-04-26T00:58:29.029Z,63.57
2019-04-26T01:00:57.799Z,65.87
2019-04-26T01:03:26.503Z,58.70
2019-04-26T01:06:00.193Z,56.87
2019-04-26T01:08:27.882Z,60.57
2019-04-26T01:10:56.581Z,61.27
2019-04-26T01:13:26.116Z,63.40
2019-04-26T01:15:54.947Z,66.43
2019-04-26T01:18:24.441Z,56.60
2019-04-26T01:20:56.155Z,64.17
2019-04-26T01:23:28.459Z,60.10
2019-04-26T01:26:03.127Z,59.40
2019-04-26T01:28:54.799Z,60.30
2019-04-26T01:31:25.963Z,69.90
2019-04-26T01:33:54.709Z,69.30
2019-04-26T01:36:26.466Z,55.17
2019-04-26T01:38:58.132Z,68.20
2019-04-26T01:41:37.106Z,64.00
2019-04-26T01:44:07.843Z,61.90
2019-04-26T01:46:46.372Z,62.60
2019-04-26T01:49:18.007Z,63.17
2019-04-26T01:51:49.656Z,66.03
2019-04-26T01:54:22.578Z,68.20
2019-04-26T01:56:54.827Z,66.87
2019-04-26T01:59:25.265Z,61.37
2019-04-26T02:01:55.731Z,62.90
2019-04-26T02:04:27.754Z,56.97
2019-04-26T02:06:56.614Z,64.80
2019-04-26T02:09:26.342Z,59.23
2019-04-26T02:11:55.107Z,65.27
2019-04-26T02:14:25.211Z,66.07
2019-04-26T02:16:54.195Z,60.17
2019-04-26T02:19:24.306Z,62.07
2019-04-26T02:21:58.151Z,59.37
2019-04-26T02:24:30.109Z,69.23
2019-04-26T02:27:01.559Z,71.97
2019-04-26T02:29:30.432Z,64.57
2019-04-26T02:32:02.488Z,64.07
2019-04-26T02:34:35.264Z,66.13
2019-04-26T02:37:07.331Z,68.33
2019-04-26T02:39:39.701Z,62.47
2019-04-26T02:42:11.553Z,66.73
2019-04-26T02:44:50.326Z,66.50
2019-04-26T02:47:39.711Z,61.37
2019-04-26T02:50:16.029Z,59.70
2019-04-26T02:53:02.799Z,63.53
2019-04-26T02:55:42.437Z,61.73
2019-04-26T02:58:11.719Z,67.27
2019-04-26T03:00:41.022Z,74.37
2019-04-26T03:03:10.915Z,67.93
2019-04-26T03:05:42.243Z,68.20
2019-04-26T03:08:13.868Z,82.70
2019-04-26T03:10:45.252Z,61.70
2019-04-26T03:13:19.112Z,69.40
2019-04-26T03:16:01.449Z,67.67
2019-04-26T03:18:41.541Z,63.87
2019-04-26T03:21:32.685Z,72.20
2019-04-26T03:24:25.640Z,67.97
2019-04-26T03:27:13.980Z,68.53
2019-04-26T03:30:19.234Z,74.97
2019-04-26T03:32:50.777Z,86.47
2019-04-26T03:35:34.666Z,74.47
2019-04-26T03:38:36.193Z,76.83
2019-04-26T03:41:24.851Z,77.97
2019-04-26T03:44:05.322Z,71.23
2019-04-26T03:46:41.182Z,69.33
2019-04-26T03:49:38.054Z,70.83
2019-04-26T03:52:28.752Z,71.80
2019-04-26T03:55:00.384Z,80.30
2019-04-26T03:57:38.335Z,75.57
2019-04-26T04:00:16.866Z,67.27
2019-04-26T04:03:05.029Z,63.13
2019-04-26T04:05:53.505Z,58.97
2019-04-26T04:08:25.159Z,63.33
2019-04-26T04:10:56.884Z,65.63
2019-04-26T04:13:40.715Z,54.07
2019-04-26T04:16:17.792Z,66.27
2019-04-26T04:18:49.535Z,57.23
2019-04-26T04:21:34.400Z,54.30
2019-04-26T04:24:08.968Z,54.53
2019-04-26T04:26:58.478Z,49.70
2019-04-26T04:29:55.266Z,58.07
2019-04-26T04:32:53.388Z,53.63
2019-04-26T04:35:24.707Z,52.53
2019-04-26T04:38:09.467Z,53.97
2019-04-26T04:41:01.980Z,56.83
2019-04-26T04:43:35.296Z,52.57
2019-04-26T04:46:32.333Z,56.77
2019-04-26T04:52:27.921Z,51.80
2019-04-26T04:55:17.707Z,48.67
2019-04-26T04:57:50.266Z,47.67
2019-04-26T05:00:29.512Z,51.13
2019-04-26T05:03:26.747Z,52.67
2019-04-26T05:06:20.396Z,50.33
2019-04-26T05:09:10.079Z,52.30
2019-04-26T05:12:05.731Z,44.43
2019-04-26T05:15:00.681Z,39.10
2019-04-26T05:17:56.687Z,40.97
2019-04-26T05:20:31.111Z,40.20
2019-04-26T05:23:35.084Z,32.03
2019-04-26T05:26:29.216Z,38.50
2019-04-26T05:29:17.907Z,36.40
2019-04-26T05:32:07.868Z,49.10
2019-04-26T05:34:56.882Z,46.42
2019-04-26T05:38:02.412Z,47.38
2019-04-26T05:41:03.145Z,45.43
2019-04-26T05:43:51.844Z,40.60
2019-04-26T05:46:52.107Z,36.20
2019-04-26T05:49:47.787Z,42.15
2019-04-26T05:52:55.195Z,36.65
2019-04-26T05:55:58.076Z,35.08
2019-04-26T05:58:48.183Z,36.68
2019-04-26T06:01:27.204Z,32.98
2019-04-26T06:04:28.957Z,34.83
2019-04-26T06:07:08.183Z,33.10
2019-04-26T06:09:47.240Z,33.10
2019-04-26T06:12:32.408Z,29.87
2019-04-26T06:15:33.071Z,32.17
2019-04-26T06:18:15.303Z,31.12
2019-04-26T06:21:05.179Z,32.53
2019-04-26T06:23:57.925Z,36.05
2019-04-26T06:29:45.955Z,30.60
2019-04-26T06:32:20.488Z,32.10
2019-04-26T06:34:59.871Z,32.13
2019-04-26T06:37:55.700Z,29.15
2019-04-26T06:40:43.775Z,30.50
2019-04-26T06:43:19.751Z,29.80
2019-04-26T06:46:11.623Z,35.40
2019-04-26T06:49:03.419Z,28.98
2019-04-26T06:52:05.173Z,26.20
2019-04-26T06:54:36.800Z,27.82
2019-04-26T06:57:24.655Z,26.87
2019-04-26T07:00:14.603Z,33.35
2019-04-26T07:02:58.934Z,25.30
2019-04-26T07:05:39.834Z,30.17
2019-04-26T07:08:26.860Z,27.30
2019-04-26T07:11:16.640Z,30.20
2019-04-26T07:14:07.600Z,30.48
2019-04-26T07:16:55.851Z,28.27
2019-04-26T07:20:03.111Z,21.68
2019-04-26T07:23:02.049Z,29.20
2019-04-26T07:26:07.976Z,28.80
2019-04-26T07:29:06.943Z,27.95
2019-04-26T07:31:50.879Z,28.65
2019-04-26T07:34:26.837Z,28.23
2019-04-26T07:37:32.019Z,28.95
2019-04-26T07:40:11.776Z,22.70
2019-04-26T07:43:30.307Z,25.95
2019-04-26T07:46:27.511Z,34.55
2019-04-26T07:49:32.573Z,24.60
2019-04-26T07:52:23.729Z,26.90
2019-04-26T07:55:28.953Z,27.00
2019-04-26T07:58:19.854Z,22.87
2019-04-26T08:00:55.689Z,23.60
2019-04-26T08:03:37.599Z,28.15
2019-04-26T08:06:11.999Z,25.55
2019-04-26T08:09:01.931Z,22.30
2019-04-26T08:11:42.544Z,22.50
2019-04-26T08:14:20.059Z,27.05
2019-04-26T08:17:10.407Z,26.73
2019-04-26T08:20:10.701Z,25.00
2019-04-26T08:22:41.119Z,24.10
2019-04-26T08:25:12.459Z,27.13
2019-04-26T08:27:42.803Z,27.80
2019-04-26T08:30:19.120Z,30.15
2019-04-26T08:32:52.917Z,33.05
2019-04-26T08:35:25.574Z,38.67
2019-04-26T08:37:58.183Z,33.15
2019-04-26T08:40:31.031Z,33.58
2019-04-26T08:43:10.876Z,35.03
2019-04-26T08:46:03.129Z,32.55
2019-04-26T08:48:49.281Z,33.23
2019-04-26T08:51:21.844Z,55.33
2019-04-26T08:53:53.686Z,30.72
2019-04-26T08:56:34.419Z,38.78
2019-04-26T08:59:06.732Z,28.25
2019-04-26T09:01:45.540Z,28.07
2019-04-26T09:04:16.662Z,25.23
2019-04-26T09:07:01.905Z,28.20
2019-04-26T09:09:33.543Z,30.50
2019-04-26T09:12:08.404Z,24.47
2019-04-26T09:14:37.407Z,27.73
2019-04-26T09:17:07.091Z,35.13
2019-04-26T09:19:35.795Z,34.20
2019-04-26T09:22:13.357Z,25.95
2019-04-26T09:24:41.123Z,34.25
2019-04-26T09:27:11.495Z,28.12
2019-04-26T09:29:44.804Z,37.15
2019-04-26T09:32:18.161Z,33.20
2019-04-26T09:34:47.415Z,25.25
2019-04-26T09:37:16.383Z,32.25
2019-04-26T09:39:45.100Z,34.85
2019-04-26T09:42:24.408Z,29.80
2019-04-26T09:44:57.519Z,29.15
2019-04-26T09:47:36.851Z,35.70
2019-04-26T09:50:17.102Z,29.20
2019-04-26T09:52:47.619Z,34.03
2019-04-26T09:55:16.259Z,29.90
2019-04-26T09:57:44.961Z,36.10
2019-04-26T10:00:17.315Z,27.98
2019-04-26T10:02:46.094Z,27.40
2019-04-26T10:05:17.581Z,26.77
2019-04-26T10:07:45.256Z,26.37
2019-04-26T10:10:35.206Z,29.10
2019-04-26T10:13:08.388Z,33.70
2019-04-26T10:15:58.265Z,32.53
2019-04-26T10:18:26.008Z,33.08
2019-04-26T10:20:54.802Z,28.73
2019-04-26T10:23:23.513Z,29.23
2019-04-26T10:25:53.570Z,33.40
2019-04-26T10:28:22.334Z,33.25
2019-04-26T10:30:51.303Z,27.05
2019-04-26T10:33:20.019Z,26.12
2019-04-26T10:35:48.719Z,26.50
2019-04-26T10:38:19.331Z,33.42
2019-04-26T10:40:47.771Z,32.85
2019-04-26T10:43:17.411Z,25.85
2019-04-26T10:45:53.577Z,25.40
2019-04-26T10:48:16.678Z,27.58
2019-04-26T10:50:45.386Z,23.52
2019-04-26T10:53:21.537Z,25.45
2019-04-26T10:55:51.880Z,27.40
2019-04-26T10:58:31.921Z,24.07
2019-04-26T11:01:03.484Z,26.27
2019-04-26T11:03:34.889Z,25.45
2019-04-26T11:06:02.620Z,21.65
2019-04-26T11:08:31.320Z,27.32
2019-04-26T11:11:00.035Z,25.80
2019-04-26T11:13:28.731Z,20.82
2019-04-26T11:15:57.444Z,23.80
2019-04-26T11:18:27.730Z,23.90
2019-04-26T11:20:56.560Z,34.13
2019-04-26T11:23:25.253Z,29.48
2019-04-26T11:25:53.953Z,20.25
2019-04-26T11:28:22.957Z,26.42
2019-04-26T11:30:52.308Z,28.42
2019-04-26T11:33:22.135Z,22.67
2019-04-26T11:35:50.847Z,27.45
2019-04-26T11:38:21.718Z,23.18
2019-04-26T11:41:05.027Z,26.70
2019-04-26T11:43:21.100Z,21.35
2019-04-26T11:45:50.493Z,21.40
2019-04-26T11:48:19.391Z,21.15
2019-04-26T11:50:48.317Z,18.92
2019-04-26T11:53:18.458Z,23.50
2019-04-26T11:55:47.163Z,24.72
2019-04-26T11:58:17.926Z,24.45
2019-04-26T12:00:53.668Z,23.30
2019-04-26T12:03:24.875Z,22.85
2019-04-26T12:05:57.332Z,24.47
2019-04-26T12:08:43.647Z,30.35
2019-04-26T12:11:18.651Z,22.58
2019-04-26T12:13:42.976Z,29.45
2019-04-26T12:16:14.593Z,22.90
2019-04-26T12:18:44.243Z,26.02
2019-04-26T12:21:12.389Z,24.02
2019-04-26T12:23:41.104Z,15.55
2019-04-26T12:26:09.872Z,26.10
2019-04-26T12:28:40.026Z,19.98
2019-04-26T12:31:08.945Z,22.55
2019-04-26T12:33:39.108Z,26.75
2019-04-26T12:36:09.510Z,18.77
2019-04-26T12:38:38.844Z,23.02
2019-04-26T12:41:07.562Z,27.52
2019-04-26T12:43:36.269Z,22.45
2019-04-26T12:46:15.521Z,19.67
2019-04-26T12:48:45.966Z,24.65
2019-04-26T12:51:15.240Z,21.30
2019-04-26T12:53:43.956Z,23.25
2019-04-26T12:56:12.651Z,22.87
2019-04-26T12:58:41.347Z,22.10
2019-04-26T13:01:12.252Z,24.85
2019-04-26T13:03:44.544Z,27.77
2019-04-26T13:06:13.331Z,22.50
2019-04-26T13:08:42.100Z,27.37
2019-04-26T13:11:16.186Z,22.73
2019-04-26T13:13:46.560Z,28.80
2019-04-26T13:16:21.511Z,20.92
2019-04-26T13:18:50.596Z,21.15
2019-04-26T13:21:19.292Z,19.40
2019-04-26T13:23:48.250Z,24.77
2019-04-26T13:26:17.098Z,25.48
2019-04-26T13:28:45.811Z,20.40
2019-04-26T13:31:14.512Z,19.50
2019-04-26T13:33:43.220Z,30.97
2019-04-26T13:36:11.915Z,30.97
2019-04-26T13:38:43.629Z,24.35
2019-04-26T13:41:11.028Z,20.75
2019-04-26T13:43:39.724Z,20.05
2019-04-26T13:46:21.993Z,22.75
2019-04-26T13:48:52.343Z,35.05
2019-04-26T13:51:22.683Z,21.90
2019-04-26T13:53:54.192Z,21.45
2019-04-26T13:56:21.745Z,23.42
2019-04-26T13:59:09.784Z,22.52
2019-04-26T14:01:38.492Z,18.10
2019-04-26T14:04:08.918Z,17.37
2019-04-26T14:06:40.640Z,19.52
2019-04-26T14:09:10.535Z,20.92
2019-04-26T14:11:39.237Z,30.68
2019-04-26T14:14:08.011Z,20.68
2019-04-26T14:16:36.711Z,24.05
2019-04-26T14:19:05.688Z,19.60
2019-04-26T14:21:34.843Z,20.92
2019-04-26T14:24:19.743Z,21.97
2019-04-26T14:26:52.659Z,23.75
2019-04-26T14:29:21.427Z,21.60
2019-04-26T14:31:51.376Z,24.43
2019-04-26T14:34:20.478Z,20.70
2019-04-26T14:36:49.188Z,22.95
2019-04-26T14:39:20.919Z,35.65
2019-04-26T14:41:48.453Z,29.12
2019-04-26T14:44:17.321Z,23.07
2019-04-26T14:46:49.012Z,29.50
2019-04-26T14:49:19.255Z,23.92
2019-04-26T14:51:51.198Z,24.57
2019-04-26T14:54:17.973Z,28.02
2019-04-26T14:56:52.414Z,28.25
2019-04-26T14:59:18.659Z,23.15
2019-04-26T15:01:54.911Z,24.98
2019-04-26T15:04:37.305Z,21.40
2019-04-26T15:07:06.715Z,24.63
2019-04-26T15:09:36.574Z,22.87
2019-04-26T15:12:07.638Z,18.57
2019-04-26T15:14:35.835Z,30.02
2019-04-26T15:17:04.576Z,24.85
2019-04-26T15:19:35.108Z,32.33
2019-04-26T15:22:10.097Z,22.77
2019-04-26T15:24:35.155Z,33.25
2019-04-26T15:27:04.335Z,25.12
2019-04-26T15:29:33.435Z,24.10
2019-04-26T15:32:04.840Z,29.70
2019-04-26T15:34:32.493Z,18.82
2019-04-26T15:37:02.868Z,32.23
2019-04-26T15:39:50.291Z,26.48
2019-04-26T15:42:23.771Z,23.87
2019-04-26T15:45:01.800Z,26.42
2019-04-26T15:47:32.047Z,21.52
2019-04-26T15:50:03.916Z,21.70
2019-04-26T15:52:33.991Z,32.58
2019-04-26T15:55:05.777Z,24.23
2019-04-26T15:57:34.681Z,27.00
2019-04-26T16:00:04.913Z,27.52
2019-04-26T16:02:33.623Z,25.25
2019-04-26T16:05:02.686Z,20.62
2019-04-26T16:07:34.226Z,29.82
2019-04-26T16:10:01.794Z,26.05
2019-04-26T16:12:32.031Z,20.43
2019-04-26T16:15:02.377Z,24.30
2019-04-26T16:17:31.200Z,27.48
2019-04-26T16:20:01.619Z,20.95
2019-04-26T16:22:31.653Z,29.40
2019-04-26T16:25:04.009Z,28.90
2019-04-26T16:27:34.147Z,25.32
2019-04-26T16:30:19.967Z,24.45
2019-04-26T16:32:52.617Z,29.77
2019-04-26T16:35:25.378Z,27.20
2019-04-26T16:37:52.095Z,23.07
2019-04-26T16:40:21.105Z,21.02
2019-04-26T16:42:56.991Z,22.37
2019-04-26T16:45:20.155Z,23.02
2019-04-26T16:47:48.974Z,28.42
2019-04-26T16:50:23.993Z,32.20
2019-04-26T16:52:48.192Z,28.23
2019-04-26T16:55:20.807Z,20.85
2019-04-26T16:57:54.989Z,25.77
2019-04-26T17:00:17.607Z,49.20
2019-04-26T17:02:46.294Z,25.92
2019-04-26T17:05:23.724Z,23.70
2019-04-26T17:07:45.949Z,21.65
2019-04-26T17:10:16.511Z,28.85
2019-04-26T17:12:46.219Z,18.17
2019-04-26T17:15:17.459Z,23.80
2019-04-26T17:17:50.182Z,23.60
2019-04-26T17:20:17.087Z,34.63
2019-04-26T17:23:05.652Z,21.68
2019-04-26T17:25:35.991Z,26.05
2019-04-26T17:28:04.694Z,24.27
2019-04-26T17:30:40.827Z,21.05
2019-04-26T17:33:03.818Z,32.27
2019-04-26T17:35:32.825Z,31.12
2019-04-26T17:38:05.096Z,23.80
2019-04-26T17:40:36.700Z,24.25
2019-04-26T17:43:05.417Z,22.50
2019-04-26T17:45:36.328Z,25.52
2019-04-26T17:48:06.501Z,24.40
2019-04-26T17:50:35.401Z,29.35
2019-04-26T17:53:06.533Z,30.17
2019-04-26T17:55:35.520Z,35.37
2019-04-26T17:58:12.462Z,29.30
2019-04-26T18:00:45.715Z,29.05
2019-04-26T18:03:13.214Z,28.35
2019-04-26T18:05:55.826Z,31.52
2019-04-26T18:08:32.795Z,19.82
2019-04-26T18:10:42.568Z,32.58
2019-04-26T18:13:16.388Z,22.95
2019-04-26T18:15:46.947Z,26.30
2019-04-26T18:18:14.368Z,26.70
2019-04-26T18:21:00.805Z,30.27
2019-04-26T18:23:30.563Z,19.62
2019-04-26T18:25:59.391Z,30.82
2019-04-26T18:28:28.091Z,22.37
2019-04-26T18:30:56.953Z,36.75
2019-04-26T18:33:26.118Z,28.90
2019-04-26T18:35:57.424Z,24.27
2019-04-26T18:38:25.263Z,27.87
2019-04-26T18:41:00.796Z,31.67
2019-04-26T18:43:24.535Z,30.20
2019-04-26T18:45:58.649Z,37.33
2019-04-26T18:48:25.241Z,26.57
2019-04-26T18:50:55.376Z,29.47
2019-04-26T18:53:30.544Z,26.30
2019-04-26T18:55:59.326Z,27.80
2019-04-26T18:58:30.305Z,34.70
2019-04-26T19:01:01.749Z,32.85
2019-04-26T19:03:49.476Z,24.47
2019-04-26T19:06:27.411Z,28.23
2019-04-26T19:08:52.239Z,26.83
2019-04-26T19:11:18.995Z,28.75
2019-04-26T19:14:06.383Z,28.93
2019-04-26T19:16:46.415Z,31.10
2019-04-26T19:19:24.250Z,37.47
2019-04-26T19:22:03.296Z,34.23
2019-04-26T19:24:31.424Z,37.83
2019-04-26T19:27:01.742Z,36.77
2019-04-26T19:29:34.316Z,32.27
2019-04-26T19:32:04.105Z,32.80
2019-04-26T19:34:31.333Z,35.73
2019-04-26T19:37:01.482Z,31.37
2019-04-26T19:39:33.308Z,28.60
2019-04-26T19:42:02.439Z,29.00
2019-04-26T19:44:31.678Z,36.27
2019-04-26T19:47:20.351Z,27.57
2019-04-26T19:50:09.413Z,27.53
2019-04-26T19:52:42.921Z,27.53
2019-04-26T19:55:16.076Z,31.53
2019-04-26T19:58:04.815Z,31.53
2019-04-26T20:00:33.583Z,22.57
2019-04-26T20:03:02.307Z,29.47
2019-04-26T20:05:31.997Z,29.50
2019-04-26T20:08:02.981Z,32.60
2019-04-26T20:10:34.579Z,34.03
2019-04-26T20:13:02.596Z,30.17
2019-04-26T20:15:31.887Z,29.57
2019-04-26T20:18:03.745Z,33.73
2019-04-26T20:20:34.581Z,26.70
2019-04-26T20:23:05.887Z,33.10
2019-04-26T20:25:31.695Z,40.50
2019-04-26T20:28:02.583Z,27.43
2019-04-26T20:30:44.224Z,35.63
2019-04-26T20:33:12.936Z,34.10
2019-04-26T20:35:42.404Z,33.57
2019-04-26T20:38:11.881Z,29.53
2019-04-26T20:40:43.521Z,31.73
2019-04-26T20:43:23.834Z,32.60
2019-04-26T20:45:42.673Z,33.10
2019-04-26T20:48:11.793Z,30.57
2019-04-26T20:50:41.326Z,32.40
2019-04-26T20:53:11.828Z,27.43
2019-04-26T20:55:40.379Z,27.17
2019-04-26T20:58:09.176Z,27.67
2019-04-26T21:00:37.972Z,24.17
2019-04-26T21:03:19.946Z,29.90
2019-04-26T21:05:45.713Z,35.57
2019-04-26T21:08:07.562Z,28.97
2019-04-26T21:10:36.266Z,27.83
2019-04-26T21:13:05.333Z,25.40
2019-04-26T21:15:35.941Z,28.60
2019-04-26T21:18:04.454Z,29.03
2019-04-26T21:20:36.398Z,24.07
2019-04-26T21:23:05.319Z,23.50
2019-04-26T21:25:52.446Z,26.77
2019-04-26T21:28:38.107Z,27.27
2019-04-26T21:31:07.479Z,27.27
2019-04-26T21:33:44.775Z,29.27
2019-04-26T21:36:40.388Z,27.53
2019-04-26T21:39:24.277Z,28.00
2019-04-26T21:41:54.628Z,31.27
2019-04-26T21:44:23.394Z,30.20
2019-04-26T21:46:56.177Z,29.13
2019-04-26T21:49:24.399Z,34.33
2019-04-26T21:51:56.223Z,32.83
2019-04-26T21:54:25.217Z,33.10
2019-04-26T21:56:56.793Z,33.00
2019-04-26T21:59:25.491Z,32.37
2019-04-26T22:01:58.963Z,30.70
2019-04-26T22:04:28.783Z,32.47
2019-04-26T22:06:55.658Z,24.80
2019-04-26T22:09:33.307Z,30.33
2019-04-26T22:11:59.454Z,29.83
2019-04-26T22:14:35.791Z,30.47
2019-04-26T22:17:24.185Z,31.67
2019-04-26T22:20:14.432Z,34.80
2019-04-26T22:22:44.306Z,29.10
2019-04-26T22:25:13.879Z,27.80
2019-04-26T22:27:43.709Z,41.97
2019-04-26T22:30:14.735Z,35.00
2019-04-26T22:32:43.426Z,32.00
2019-04-26T22:35:13.483Z,35.00
2019-04-26T22:37:45.540Z,34.40
2019-04-26T22:40:17.020Z,37.73
2019-04-26T22:42:44.989Z,29.90
2019-04-26T22:45:15.631Z,39.13
2019-04-26T22:47:58.025Z,38.00
2019-04-26T22:50:26.792Z,31.37
2019-04-26T22:52:55.495Z,37.57
2019-04-26T22:55:27.405Z,37.70
2019-04-26T22:57:54.651Z,35.07
2019-04-26T23:00:29.290Z,35.23
2019-04-26T23:02:58.223Z,37.90
2019-04-26T23:05:26.059Z,32.80
2019-04-26T23:07:58.896Z,38.70
2019-04-26T23:10:31.189Z,36.40
2019-04-26T23:13:17.919Z,38.63
2019-04-26T23:15:48.264Z,37.27
2019-04-26T23:18:38.721Z,39.23
2019-04-26T23:21:17.469Z,36.80
2019-04-26T23:23:46.162Z,37.17
2019-04-26T23:26:14.906Z,35.93
2019-04-26T23:28:43.599Z,37.73
2019-04-26T23:31:13.391Z,39.50
2019-04-26T23:33:42.948Z,36.07
2019-04-26T23:36:13.481Z,37.40
2019-04-26T23:38:43.507Z,37.43
2019-04-26T23:41:14.194Z,37.23
2019-04-26T23:43:43.023Z,38.07
2019-04-26T23:46:14.351Z,35.13
2019-04-26T23:48:42.693Z,33.17
2019-04-26T23:51:12.431Z,40.03
2019-04-26T23:53:42.804Z,40.93
2019-04-26T23:56:16.248Z,41.00
2019-04-26T23:58:44.162Z,39.37
